Time;durP1;ratioP1;P1;durP2;ratioP2;P2;SDS_P1;SDS_P2;PMS_P1;PMS_P2;Temp;Humidity;BMP_temperature;BMP_pressure;BME280_temperature;BME280_humidity;BME280_pressure;Samples;Min_cycle;Max_cycle;Signal;HPM_P1;HPM_P2
2022/03/08 00:00:30;;;;;;;36.28;20.50;;;;;;;-0.33;81.19;94991.72;5015634;28;20041;-82
2022/03/08 00:02:57;;;;;;;38.10;20.45;;;;;;;-0.48;81.31;94998.03;5015770;28;20026;-83
2022/03/08 00:05:23;;;;;;;39.08;20.88;;;;;;;-1.12;81.54;94921.84;5017269;28;20106;-82
2022/03/08 00:07:49;;;;;;;36.65;19.80;;;;;;;-0.51;81.77;95003.66;5015040;28;20183;-82
2022/03/08 00:10:16;;;;;;;34.30;18.58;;;;;;;-1.03;82.01;94944.03;5015232;28;20049;-82
2022/03/08 00:12:42;;;;;;;39.40;20.92;;;;;;;-1.76;83.04;94855.09;5016943;28;20038;-82
2022/03/08 00:15:12;;;;;;;40.08;21.38;;;;;;;-1.30;83.00;94922.53;5015121;28;20558;-82
2022/03/08 00:17:38;;;;;;;37.58;19.10;;;;;;;-2.03;82.86;94821.34;5016947;28;20071;-82
2022/03/08 00:20:06;;;;;;;38.33;20.73;;;;;;;-1.78;83.04;94850.09;5016590;28;20112;-82
2022/03/08 00:22:33;;;;;;;41.60;20.55;;;;;;;-0.96;82.59;94955.22;5015155;28;20424;-82
2022/03/08 00:25:01;;;;;;;42.50;21.75;;;;;;;-0.78;82.96;94994.38;5015035;28;20068;-82
2022/03/08 00:27:27;;;;;;;41.10;21.50;;;;;;;-0.98;82.78;94959.81;5015134;28;20037;-81
2022/03/08 00:29:53;;;;;;;35.45;21.05;;;;;;;-1.54;82.79;94859.00;5015396;28;20069;-82
2022/03/08 00:32:24;;;;;;;35.32;18.68;;;;;;;-0.81;82.65;94979.16;3719709;28;10020698;-81
2022/03/08 00:34:50;;;;;;;37.35;21.30;;;;;;;-0.73;82.85;94997.16;1728804;28;10001938;-82
2022/03/08 00:37:16;;;;;;;33.53;18.67;;;;;;;-1.19;82.16;94921.88;5016331;28;20034;-82
2022/03/08 00:39:42;;;;;;;34.40;18.98;;;;;;;-1.00;81.81;94943.63;5017346;28;20041;-82
2022/03/08 00:42:12;;;;;;;33.28;19.27;;;;;;;-1.08;81.99;94936.84;5017641;28;20113;-82
2022/03/08 00:44:38;;;;;;;36.45;20.25;;;;;;;-1.82;81.66;94850.69;5016585;28;20487;-82
2022/03/08 00:47:05;;;;;;;41.47;20.75;;;;;;;-1.47;82.76;94887.56;5017265;28;20120;-82
2022/03/08 00:49:30;;;;;;;42.80;22.02;;;;;;;-1.78;82.54;94846.69;5017848;28;20041;-83
2022/03/08 00:51:56;;;;;;;36.88;20.10;;;;;;;-1.43;83.02;94917.34;5016634;28;20033;-82
2022/03/08 00:54:21;;;;;;;37.25;19.55;;;;;;;-0.87;83.02;94990.41;5016768;28;20100;-81
2022/03/08 00:56:47;;;;;;;44.88;21.80;;;;;;;-0.79;83.17;94998.78;5018520;28;20076;-82
2022/03/08 00:59:12;;;;;;;42.50;22.10;;;;;;;-1.42;82.51;94885.94;5018531;28;20045;-82
2022/03/08 01:01:38;;;;;;;40.78;23.08;;;;;;;-0.82;82.95;94988.78;5016680;28;20034;-82
2022/03/08 01:04:03;;;;;;;41.28;21.30;;;;;;;-0.76;83.11;94991.59;5017413;28;20093;-83
2022/03/08 01:06:29;;;;;;;42.65;21.70;;;;;;;-1.02;82.91;94948.22;5017383;28;20054;-82
2022/03/08 01:08:54;;;;;;;38.45;20.58;;;;;;;-1.12;82.86;94898.41;5017507;28;20021;-82
2022/03/08 01:11:20;;;;;;;36.38;20.70;;;;;;;-0.86;81.26;94943.34;5019108;28;20115;-82
2022/03/08 01:13:45;;;;;;;38.05;20.83;;;;;;;-0.61;81.86;94958.25;5019366;28;20029;-83
2022/03/08 01:16:11;;;;;;;39.67;21.35;;;;;;;-1.15;81.94;94873.63;5018372;28;20041;-82
2022/03/08 01:18:36;;;;;;;41.42;21.60;;;;;;;-1.07;81.57;94904.63;5019293;28;20033;-83
2022/03/08 01:21:02;;;;;;;37.83;20.33;;;;;;;-1.08;80.75;94902.22;5021111;28;20412;-83
2022/03/08 01:23:28;;;;;;;39.50;20.42;;;;;;;-0.99;81.55;94916.59;5019976;28;20451;-83
2022/03/08 01:25:53;;;;;;;38.80;20.48;;;;;;;-0.70;81.43;94975.13;5003480;28;20495;-83
2022/03/08 01:28:19;;;;;;;39.08;20.20;;;;;;;-0.64;81.84;94969.06;5016076;28;20069;-83
2022/03/08 01:30:46;;;;;;;36.85;20.45;;;;;;;-1.30;81.52;94860.91;5018060;28;20097;-83
2022/03/08 01:33:11;;;;;;;40.78;20.75;;;;;;;-1.21;81.21;94892.66;5017411;28;20042;-83
2022/03/08 01:35:37;;;;;;;38.65;21.02;;;;;;;-1.41;80.75;94871.94;5017649;28;20048;-82
2022/03/08 01:38:02;;;;;;;40.83;21.98;;;;;;;-0.96;81.41;94950.81;5016210;28;20068;-82
2022/03/08 01:40:28;;;;;;;39.10;21.33;;;;;;;-1.34;80.82;94900.53;5015694;28;20256;-82
2022/03/08 01:42:54;;;;;;;38.88;22.63;;;;;;;-0.82;80.97;94956.72;5017473;28;20476;-82
2022/03/08 01:45:22;;;;;;;44.05;21.95;;;;;;;-1.19;80.66;94921.88;5015443;28;20102;-82
2022/03/08 01:47:48;;;;;;;41.05;19.80;;;;;;;-1.39;80.34;94936.78;5015556;28;20476;-82
2022/03/08 01:50:15;;;;;;;41.10;22.25;;;;;;;-1.93;80.89;94844.31;5017481;28;20058;-82
2022/03/08 01:52:41;;;;;;;40.65;21.13;;;;;;;-1.25;81.21;94939.13;5016958;28;20068;-82
2022/03/08 01:55:08;;;;;;;52.80;24.50;;;;;;;-1.46;81.01;94923.00;5015124;28;20033;-83
2022/03/08 01:57:34;;;;;;;50.42;22.40;;;;;;;-1.84;81.77;94850.09;5017220;28;20030;-82
2022/03/08 01:59:59;;;;;;;40.35;21.52;;;;;;;-1.44;80.80;94919.16;5015584;28;20034;-82
2022/03/08 02:02:25;;;;;;;48.08;23.15;;;;;;;-1.57;81.18;94904.41;5015001;28;20105;-82
2022/03/08 02:04:51;;;;;;;45.47;23.52;;;;;;;-1.62;80.67;94873.03;5017321;28;20404;-81
2022/03/08 02:07:17;;;;;;;49.70;24.45;;;;;;;-1.80;80.80;94854.69;5021111;28;20029;-82
2022/03/08 02:09:42;;;;;;;42.53;22.70;;;;;;;-0.90;80.70;94968.19;5022692;28;20030;-82
2022/03/08 02:12:09;;;;;;;44.90;24.00;;;;;;;-1.76;80.88;94834.28;5022295;28;20026;-82
2022/03/08 02:14:35;;;;;;;43.03;22.27;;;;;;;-1.08;80.85;94952.47;5021707;28;20030;-82
2022/03/08 02:17:01;;;;;;;44.20;23.60;;;;;;;-0.79;81.23;94977.97;5016222;28;20037;-81
2022/03/08 02:19:26;;;;;;;39.97;22.25;;;;;;;-1.66;80.11;94832.03;5033157;28;20038;-82
2022/03/08 02:21:53;;;;;;;38.35;20.00;;;;;;;-1.12;79.07;94914.03;5017904;28;20125;-82
2022/03/08 02:24:19;;;;;;;38.88;21.48;;;;;;;-1.50;79.01;94844.56;5016033;28;20508;-82
2022/03/08 02:26:45;;;;;;;36.97;19.63;;;;;;;-1.20;79.35;94917.66;5015498;28;20109;-82
2022/03/08 02:29:11;;;;;;;37.88;19.77;;;;;;;-2.42;79.72;94735.75;5016024;28;20176;-81
2022/03/08 02:31:37;;;;;;;36.80;19.73;;;;;;;-0.86;80.42;94937.34;5017987;28;20050;-81
2022/03/08 02:34:03;;;;;;;40.95;20.77;;;;;;;-1.23;79.91;94877.28;5017994;28;20034;-81
2022/03/08 02:36:29;;;;;;;40.50;21.33;;;;;;;-0.68;79.61;94976.50;5016974;28;20045;-82
2022/03/08 02:38:55;;;;;;;38.78;20.85;;;;;;;-0.81;79.67;94942.72;5016946;28;20415;-83
2022/03/08 02:41:20;;;;;;;42.80;22.40;;;;;;;-0.76;79.80;94983.78;4973237;28;20196;-82
2022/03/08 02:44:00;;;;;;;44.55;23.55;;;;;;;-1.05;79.59;94931.22;1113814;28;10021682;-81
2022/03/08 02:46:25;;;;;;;49.60;25.05;;;;;;;-0.73;80.44;94983.34;4686086;28;10001016;-82
2022/03/08 02:48:51;;;;;;;49.33;23.63;;;;;;;-1.49;80.14;94879.19;5016291;28;20120;-82
2022/03/08 02:51:17;;;;;;;46.88;23.92;;;;;;;-1.10;80.48;94954.47;5033233;28;20408;-82
2022/03/08 02:53:43;;;;;;;50.38;24.08;;;;;;;-0.62;80.38;94991.31;5017322;28;20037;-82
2022/03/08 02:56:09;;;;;;;48.53;24.98;;;;;;;-1.92;79.53;94803.53;5017173;28;20022;-82
2022/03/08 02:58:34;;;;;;;49.97;25.02;;;;;;;-0.77;80.26;94980.38;5016818;28;20034;-81
2022/03/08 03:00:59;;;;;;;53.63;26.35;;;;;;;-0.72;79.74;95001.38;5015417;28;20495;-81
2022/03/08 03:03:25;;;;;;;51.47;24.98;;;;;;;-1.80;79.53;94861.69;5029713;28;20088;-81
2022/03/08 03:05:50;;;;;;;51.13;23.70;;;;;;;-0.78;79.29;95004.81;5013857;28;20034;-81
2022/03/08 03:08:16;;;;;;;48.60;25.48;;;;;;;-0.87;80.31;94996.44;5013535;28;20026;-82
2022/03/08 03:10:41;;;;;;;49.40;24.67;;;;;;;-1.58;80.87;94886.41;5014840;28;20108;-81
2022/03/08 03:13:07;;;;;;;51.15;25.63;;;;;;;-1.17;79.60;94988.31;5013323;28;20405;-81
2022/03/08 03:15:32;;;;;;;47.28;25.00;;;;;;;-1.52;80.48;94940.19;5015407;28;20113;-82
2022/03/08 03:17:59;;;;;;;46.05;24.23;;;;;;;-1.07;80.52;95003.53;5014888;28;20092;-82
2022/03/08 03:20:26;;;;;;;47.75;24.05;;;;;;;-1.90;79.97;94863.91;5012975;28;20459;-82
2022/03/08 03:22:52;;;;;;;45.63;23.85;;;;;;;-2.03;80.12;94869.94;5013425;28;20052;-82
2022/03/08 03:25:18;;;;;;;58.33;26.30;;;;;;;-1.54;81.18;94957.03;5014244;28;20054;-82
2022/03/08 03:27:44;;;;;;;45.97;23.33;;;;;;;-1.47;80.64;94983.81;5013270;28;20500;-82
2022/03/08 03:30:13;;;;;;;49.15;24.15;;;;;;;-2.22;80.07;94840.41;5016687;28;20448;-82
2022/03/08 03:32:39;;;;;;;46.88;23.50;;;;;;;-1.11;79.97;95020.53;5017908;28;20038;-82
2022/03/08 03:35:06;;;;;;;51.15;25.65;;;;;;;-1.09;80.43;95009.94;5016716;28;20026;-82
2022/03/08 03:37:32;;;;;;;47.33;24.17;;;;;;;-1.70;80.44;94920.06;5018747;28;20040;-82
2022/03/08 03:39:57;;;;;;;50.53;23.83;;;;;;;-1.19;79.98;94987.72;5018234;28;20030;-82
2022/03/08 03:42:23;;;;;;;46.35;23.85;;;;;;;-1.44;80.15;94965.97;5016573;28;20038;-81
2022/03/08 03:44:48;;;;;;;49.40;24.90;;;;;;;-2.67;80.33;94790.09;5018863;28;20024;-81
2022/03/08 03:47:14;;;;;;;45.95;23.17;;;;;;;-1.86;80.62;94919.69;5018007;28;20116;-81
2022/03/08 03:49:39;;;;;;;45.53;24.23;;;;;;;-2.27;81.14;94839.38;5016910;28;20036;-82
2022/03/08 03:52:05;;;;;;;51.80;25.25;;;;;;;-1.82;81.25;94913.06;5016811;28;20492;-81
2022/03/08 03:54:31;;;;;;;53.85;25.55;;;;;;;-1.11;81.33;95015.31;5016848;28;20574;-81
2022/03/08 03:56:57;;;;;;;47.15;25.65;;;;;;;-1.20;81.71;95011.34;5016576;28;20026;-81
2022/03/08 03:59:22;;;;;;;57.28;26.67;;;;;;;-1.39;81.55;94996.59;5016482;28;20070;-81
2022/03/08 04:01:47;;;;;;;53.20;25.63;;;;;;;-1.85;82.08;94905.69;5032923;28;20498;-81
2022/03/08 04:04:13;;;;;;;51.58;25.27;;;;;;;-2.10;82.64;94884.72;5017295;28;20061;-81
2022/03/08 04:06:39;;;;;;;52.13;26.52;;;;;;;-1.54;82.75;94960.41;5016355;28;20034;-81
2022/03/08 04:09:05;;;;;;;48.10;23.67;;;;;;;-2.14;82.60;94879.16;5016375;28;20038;-82
2022/03/08 04:11:31;;;;;;;51.65;25.83;;;;;;;-1.93;82.82;94898.91;5018389;28;20037;-81
2022/03/08 04:13:56;;;;;;;52.28;25.25;;;;;;;-1.67;82.65;94937.81;5016448;28;20416;-82
2022/03/08 04:16:22;;;;;;;49.90;26.73;;;;;;;-1.07;82.78;95011.31;5017783;28;20033;-81
2022/03/08 04:18:47;;;;;;;52.55;27.27;;;;;;;-1.46;82.27;94944.59;5017856;28;20498;-82
2022/03/08 04:21:13;;;;;;;53.15;26.83;;;;;;;-1.18;82.07;94985.94;5017102;28;20045;-81
2022/03/08 04:23:38;;;;;;;55.72;28.17;;;;;;;-1.89;82.26;94892.28;5016050;28;20050;-81
2022/03/08 04:26:04;;;;;;;58.80;28.40;;;;;;;-1.11;82.77;95014.53;5016777;28;20128;-81
2022/03/08 04:28:29;;;;;;;54.58;27.30;;;;;;;-1.62;83.11;94977.03;5016230;28;20034;-82
2022/03/08 04:30:55;;;;;;;57.05;28.60;;;;;;;-1.85;82.98;94911.69;5017510;28;20030;-81
2022/03/08 04:33:39;;;;;;;50.46;25.36;;;;;;;-1.41;83.14;94941.38;4178947;28;10001970;-82
2022/03/08 04:36:04;;;;;;;59.85;29.60;;;;;;;-1.65;82.82;94909.84;1728915;28;10001906;-82
2022/03/08 04:38:30;;;;;;;59.53;28.52;;;;;;;-0.84;82.17;95008.25;5016418;28;20026;-81
2022/03/08 04:40:55;;;;;;;60.35;29.05;;;;;;;-0.92;82.62;95008.47;5015411;28;20033;-82
2022/03/08 04:43:21;;;;;;;60.38;27.33;;;;;;;-1.21;82.15;94940.28;5015753;28;20033;-82
2022/03/08 04:45:46;;;;;;;61.88;29.92;;;;;;;-1.74;81.89;94866.84;5016074;28;20037;-82
2022/03/08 04:48:12;;;;;;;60.30;29.23;;;;;;;-0.83;81.90;94999.41;5015522;28;20042;-81
2022/03/08 04:50:38;;;;;;;60.70;30.20;;;;;;;-0.68;81.90;95010.34;5017361;28;20049;-82
2022/03/08 04:53:04;;;;;;;57.75;28.38;;;;;;;-0.80;81.49;95002.41;5015874;28;20041;-82
2022/03/08 04:55:29;;;;;;;60.80;30.15;;;;;;;-0.97;81.89;94953.59;5015697;28;20543;-82
2022/03/08 04:57:55;;;;;;;63.97;30.45;;;;;;;-0.99;81.26;94966.06;5015354;28;20076;-81
2022/03/08 05:00:20;;;;;;;70.40;32.47;;;;;;;-1.97;82.19;94835.31;5016729;28;20045;-82
2022/03/08 05:02:46;;;;;;;65.45;31.00;;;;;;;-2.15;81.82;94775.44;5016321;28;20570;-81
2022/03/08 05:05:13;;;;;;;70.97;32.22;;;;;;;-1.19;82.05;94945.28;5015936;28;20420;-82
2022/03/08 05:07:40;;;;;;;61.13;28.98;;;;;;;-0.86;82.21;95005.84;5017524;28;20041;-82
2022/03/08 05:10:10;;;;;;;62.42;30.25;;;;;;;-1.90;81.95;94851.69;5018252;28;20033;-82
2022/03/08 05:12:37;;;;;;;68.22;30.52;;;;;;;-1.31;81.44;94926.13;5018161;28;20107;-81
2022/03/08 05:15:04;;;;;;;63.15;29.88;;;;;;;-1.58;81.80;94920.22;5016500;28;20030;-81
2022/03/08 05:17:30;;;;;;;60.85;28.65;;;;;;;-1.67;81.97;94906.63;5016108;28;20034;-82
2022/03/08 05:19:55;;;;;;;67.93;30.45;;;;;;;-2.00;82.93;94867.72;5017195;28;20026;-81
2022/03/08 05:22:22;;;;;;;62.60;29.25;;;;;;;-1.71;82.48;94895.06;5018479;28;20500;-82
2022/03/08 05:24:47;;;;;;;63.17;29.88;;;;;;;-1.01;81.93;94989.69;5017552;28;20551;-82
2022/03/08 05:27:13;;;;;;;62.75;29.83;;;;;;;-1.29;82.21;94929.31;5016659;28;20030;-82
2022/03/08 05:29:38;;;;;;;68.03;31.48;;;;;;;-1.53;81.82;94901.41;5018475;28;20037;-82
2022/03/08 05:32:05;;;;;;;62.35;29.27;;;;;;;-1.01;81.54;94997.47;5018132;28;20550;-82
2022/03/08 05:34:30;;;;;;;59.10;30.08;;;;;;;-1.62;81.79;94898.22;5016995;28;20034;-81
2022/03/08 05:36:56;;;;;;;62.50;29.65;;;;;;;-1.44;81.71;94913.97;5033726;28;20037;-82
2022/03/08 05:39:22;;;;;;;61.67;30.25;;;;;;;-1.41;81.83;94930.97;5020136;28;20100;-82
2022/03/08 05:41:48;;;;;;;59.30;29.40;;;;;;;-1.25;81.57;94970.34;5017252;28;20037;-81
2022/03/08 05:44:13;;;;;;;68.97;31.90;;;;;;;-0.99;81.96;95020.72;5017977;28;20040;-82
2022/03/08 05:46:38;;;;;;;63.17;28.92;;;;;;;-1.05;82.22;95018.91;5016404;28;20097;-82
2022/03/08 05:49:04;;;;;;;59.83;28.15;;;;;;;-0.97;81.79;95019.47;5016404;28;20025;-81
2022/03/08 05:51:29;;;;;;;66.50;29.08;;;;;;;-1.78;81.80;94885.66;5016207;28;20041;-82
2022/03/08 05:53:55;;;;;;;61.97;30.02;;;;;;;-1.34;81.28;94942.94;5018706;28;20042;-83
2022/03/08 05:56:20;;;;;;;60.47;28.67;;;;;;;-1.80;80.60;94882.47;5017753;28;20427;-81
2022/03/08 05:58:46;;;;;;;65.13;28.73;;;;;;;-0.83;81.35;95028.03;5018558;28;20030;-82
2022/03/08 06:01:11;;;;;;;60.10;28.52;;;;;;;-1.38;81.09;94972.19;5016778;28;20618;-81
2022/03/08 06:03:37;;;;;;;61.78;29.45;;;;;;;-0.91;81.13;95047.28;5017782;28;20030;-81
2022/03/08 06:06:03;;;;;;;60.95;28.23;;;;;;;-1.47;81.39;94950.00;5016005;28;20167;-82
2022/03/08 06:08:29;;;;;;;52.58;27.27;;;;;;;-2.03;81.35;94886.31;5015617;28;20037;-82
2022/03/08 06:10:54;;;;;;;65.20;29.55;;;;;;;-1.08;81.95;95027.13;5016646;28;20072;-81
2022/03/08 06:13:20;;;;;;;63.33;29.30;;;;;;;-1.21;82.00;95009.75;5016705;28;20034;-82
2022/03/08 06:15:45;;;;;;;59.05;29.20;;;;;;;-1.59;81.89;94957.63;5015831;28;20033;-81
2022/03/08 06:18:11;;;;;;;63.28;28.50;;;;;;;-1.56;81.69;94976.22;5016864;28;20522;-81
2022/03/08 06:20:37;;;;;;;61.22;29.70;;;;;;;-1.36;81.74;94975.38;5017156;28;20040;-82
2022/03/08 06:23:02;;;;;;;64.60;31.27;;;;;;;-1.68;81.37;94931.03;5016560;28;20057;-82
2022/03/08 06:25:28;;;;;;;61.60;29.65;;;;;;;-1.23;81.55;94988.34;5015678;28;20123;-82
2022/03/08 06:27:53;;;;;;;63.10;29.67;;;;;;;-0.96;80.99;95036.69;5014239;28;20045;-82
2022/03/08 06:30:18;;;;;;;62.78;30.73;;;;;;;-1.06;80.75;95041.53;5012729;28;20026;-82
2022/03/08 06:32:44;;;;;;;62.38;29.25;;;;;;;-1.43;81.22;94959.78;5017153;28;20057;-81
2022/03/08 06:35:10;;;;;;;62.55;29.98;;;;;;;-1.77;81.09;94908.06;5017573;28;20458;-81
2022/03/08 06:37:36;;;;;;;56.70;28.65;;;;;;;-1.48;81.18;94930.19;5018046;28;20120;-82
2022/03/08 06:40:02;;;;;;;63.33;29.83;;;;;;;-2.91;79.79;94720.66;5015592;28;20069;-81
2022/03/08 06:42:28;;;;;;;72.07;31.77;;;;;;;-1.53;80.24;94949.03;5015250;28;20569;-81
2022/03/08 06:44:53;;;;;;;65.03;29.45;;;;;;;-1.09;81.01;94974.28;5014865;28;20026;-83
2022/03/08 06:47:19;;;;;;;57.80;28.25;;;;;;;-1.64;79.75;94875.03;5015599;28;20034;-82
2022/03/08 06:49:45;;;;;;;57.85;28.90;;;;;;;-1.01;79.29;94960.25;5017447;28;20069;-81
2022/03/08 06:52:10;;;;;;;60.80;30.33;;;;;;;-1.08;79.61;94936.06;5015263;28;20072;-81
2022/03/08 06:54:36;;;;;;;64.03;29.23;;;;;;;-0.86;78.97;94951.16;5016253;28;20038;-82
2022/03/08 06:57:03;;;;;;;58.20;29.58;;;;;;;-6.37;78.31;94114.72;5017311;28;20026;-82
2022/03/08 06:59:32;;;;;;;59.80;29.63;;;;;;;-5.93;78.17;94158.03;5015759;28;20041;-82
2022/03/08 07:02:00;;;;;;;62.78;30.15;;;;;;;-2.32;79.20;94686.78;5016324;28;20031;-82
2022/03/08 07:04:25;;;;;;;58.20;29.45;;;;;;;-2.66;77.94;94710.44;5014708;28;20030;-82
2022/03/08 07:06:51;;;;;;;58.00;27.65;;;;;;;-2.65;77.86;94712.81;5015608;28;20029;-81
2022/03/08 07:09:17;;;;;;;56.13;27.55;;;;;;;-0.58;78.61;94983.84;5014269;28;20159;-82
2022/03/08 07:11:43;;;;;;;52.55;25.20;;;;;;;-0.49;78.02;95040.72;5015516;28;20038;-81
2022/03/08 07:14:10;;;;;;;55.92;26.80;;;;;;;-2.22;79.52;94762.47;5013161;28;20045;-82
2022/03/08 07:16:35;;;;;;;58.45;27.45;;;;;;;0.12;78.51;95047.16;5013049;28;20069;-82
2022/03/08 07:19:01;;;;;;;50.05;24.42;;;;;;;-0.83;77.28;94893.44;5012618;28;20030;-81
2022/03/08 07:21:27;;;;;;;49.45;23.30;;;;;;;-0.51;76.89;95006.25;5015487;28;20088;-82
2022/03/08 07:23:52;;;;;;;48.33;23.73;;;;;;;-1.15;77.22;94922.28;5012783;28;20064;-82
2022/03/08 07:26:19;;;;;;;49.80;23.90;;;;;;;-0.59;77.99;95023.94;5014682;28;20494;-83
2022/03/08 07:28:44;;;;;;;56.40;25.88;;;;;;;-1.25;79.49;94926.09;5014044;28;20038;-82
2022/03/08 07:31:12;;;;;;;57.35;27.67;;;;;;;-0.97;78.76;94993.44;5012273;28;20034;-82
2022/03/08 07:33:38;;;;;;;56.55;26.60;;;;;;;-1.15;78.83;94940.50;5012727;28;20034;-83
2022/03/08 07:36:03;;;;;;;47.28;24.00;;;;;;;-0.54;78.76;95053.56;5010976;28;20030;-83
2022/03/08 07:38:29;;;;;;;56.08;26.27;;;;;;;-0.92;78.65;94988.44;5011326;28;20045;-82
2022/03/08 07:40:54;;;;;;;54.30;27.40;;;;;;;-0.53;79.43;95030.91;5013244;28;20046;-82
2022/03/08 07:43:20;;;;;;;58.28;27.33;;;;;;;-0.26;78.79;95055.84;5012963;28;20436;-83
2022/03/08 07:45:45;;;;;;;48.28;23.88;;;;;;;-0.50;77.85;95022.69;5014629;28;20080;-81
2022/03/08 07:48:11;;;;;;;43.90;22.67;;;;;;;-0.86;77.95;94979.00;5015474;28;20082;-82
2022/03/08 07:50:37;;;;;;;44.10;23.25;;;;;;;-0.35;78.26;95056.28;5016147;28;20033;-82
2022/03/08 07:53:04;;;;;;;43.05;21.27;;;;;;;-1.57;77.39;94867.19;5012695;28;20121;-81
2022/03/08 07:55:30;;;;;;;45.15;22.75;;;;;;;-0.60;77.56;95030.94;4995417;28;20049;-82
2022/03/08 07:57:56;;;;;;;44.13;22.00;;;;;;;-1.27;77.51;94925.50;5011732;28;20042;-82
2022/03/08 08:00:23;;;;;;;44.85;23.27;;;;;;;-0.97;77.73;94975.22;5013463;28;20044;-82
2022/03/08 08:02:48;;;;;;;45.03;22.75;;;;;;;-1.20;77.63;94974.91;5013698;28;20057;-82
2022/03/08 08:05:14;;;;;;;47.03;23.77;;;;;;;-1.52;78.67;94905.56;5015095;28;20037;-82
2022/03/08 08:07:39;;;;;;;45.38;23.10;;;;;;;-1.61;78.79;94899.84;5013164;28;20095;-81
2022/03/08 08:10:05;;;;;;;46.67;22.10;;;;;;;-0.91;79.10;95008.25;5016125;28;20037;-82
2022/03/08 08:12:30;;;;;;;40.28;20.10;;;;;;;-0.67;78.27;95047.59;5014872;28;20049;-82
2022/03/08 08:14:56;;;;;;;45.63;24.75;;;;;;;-1.75;78.83;94888.66;5017606;28;20063;-82
2022/03/08 08:17:22;;;;;;;45.33;23.63;;;;;;;-0.60;78.69;95050.97;5019088;28;20060;-82
2022/03/08 08:19:47;;;;;;;43.75;24.02;;;;;;;-0.79;77.83;95035.25;5019699;28;20042;-83
2022/03/08 08:22:13;;;;;;;54.58;25.55;;;;;;;-1.41;78.57;94978.59;5019352;28;20047;-82
2022/03/08 08:24:38;;;;;;;51.28;25.98;;;;;;;-0.88;78.48;95072.13;5019145;28;20415;-82
2022/03/08 08:27:04;;;;;;;49.08;25.10;;;;;;;-1.77;78.14;94906.28;5018377;28;20038;-83
2022/03/08 08:29:30;;;;;;;52.25;26.77;;;;;;;-1.07;79.17;95021.75;5016478;28;20152;-82
2022/03/08 08:31:57;;;;;;;51.20;26.08;;;;;;;-1.64;78.89;94901.03;5017451;28;20063;-83
2022/03/08 08:34:22;;;;;;;60.25;28.58;;;;;;;-1.36;78.94;94954.56;5018311;28;20038;-82
2022/03/08 08:36:47;;;;;;;51.03;25.40;;;;;;;-0.95;79.03;95025.28;5019551;28;20250;-83
2022/03/08 08:39:17;;;;;;;50.40;24.85;;;;;;;-1.27;77.88;94992.34;5016720;28;20030;-83
2022/03/08 08:41:43;;;;;;;47.17;24.33;;;;;;;-0.81;77.67;95106.75;5019367;28;20049;-83
2022/03/08 08:44:09;;;;;;;57.17;26.30;;;;;;;-2.57;78.05;94803.47;5017796;28;20029;-84
2022/03/08 08:46:35;;;;;;;50.78;25.42;;;;;;;-0.96;77.84;95073.16;5018713;28;20037;-83
2022/03/08 08:49:01;;;;;;;53.25;26.80;;;;;;;-2.13;77.66;94905.91;5019322;28;20125;-82
2022/03/08 08:51:26;;;;;;;52.55;26.65;;;;;;;-1.49;78.42;95035.22;5018998;28;20065;-83
2022/03/08 08:53:52;;;;;;;54.00;27.15;;;;;;;-1.23;78.08;95072.41;5019878;28;20026;-83
2022/03/08 08:56:17;;;;;;;49.83;25.33;;;;;;;-1.25;78.51;95082.22;5017607;28;20034;-83
2022/03/08 08:58:43;;;;;;;60.13;28.38;;;;;;;-1.32;78.93;95044.22;5018199;28;20173;-82
2022/03/08 09:01:08;;;;;;;57.17;26.13;;;;;;;-1.82;78.43;95004.84;5016199;28;20092;-83
2022/03/08 09:03:34;;;;;;;58.35;28.58;;;;;;;-2.49;78.19;94881.16;5014384;28;20492;-83
2022/03/08 09:05:59;;;;;;;59.25;27.58;;;;;;;-2.18;77.98;94921.31;5016061;28;20115;-83
2022/03/08 09:08:25;;;;;;;57.17;27.63;;;;;;;-2.20;79.36;94920.69;5015989;28;20393;-84
2022/03/08 09:10:52;;;;;;;57.22;28.00;;;;;;;-1.59;78.95;95004.41;5014349;28;20040;-84
2022/03/08 09:13:18;;;;;;;53.60;28.10;;;;;;;-1.10;78.07;95070.78;5014734;28;20026;-82
2022/03/08 09:15:43;;;;;;;61.10;28.15;;;;;;;-2.07;76.53;94910.31;5014697;28;20044;-82
2022/03/08 09:18:09;;;;;;;54.22;26.58;;;;;;;-2.08;76.54;94966.69;5018997;28;20465;-82
2022/03/08 09:20:34;;;;;;;60.53;27.77;;;;;;;-1.29;77.54;95075.81;5018695;28;20044;-83
2022/03/08 09:23:00;;;;;;;54.60;26.65;;;;;;;-1.54;76.16;95053.25;5018140;28;20499;-83
2022/03/08 09:25:27;;;;;;;59.40;30.40;;;;;;;-1.73;77.92;95016.66;5016297;28;20143;-83
2022/03/08 09:27:52;;;;;;;63.17;30.92;;;;;;;-2.03;78.18;94946.09;5018246;28;20037;-83
2022/03/08 09:30:18;;;;;;;61.97;29.23;;;;;;;-1.48;77.30;95029.81;5017088;28;20029;-83
2022/03/08 09:32:44;;;;;;;62.35;30.02;;;;;;;-2.03;76.50;94953.09;5016522;28;20191;-83
2022/03/08 09:35:09;;;;;;;63.58;29.85;;;;;;;-1.83;77.48;94958.28;5017214;28;20034;-83
2022/03/08 09:37:35;;;;;;;56.90;29.30;;;;;;;-1.14;76.92;95070.38;5016197;28;20341;-84
2022/03/08 09:40:02;;;;;;;65.70;32.33;;;;;;;-1.40;78.09;95008.00;5018105;28;20121;-83
2022/03/08 09:42:30;;;;;;;65.10;31.83;;;;;;;-1.15;77.29;95040.19;5018779;28;20472;-83
2022/03/08 09:44:56;;;;;;;63.60;30.95;;;;;;;-1.17;76.66;95021.34;5018318;28;20030;-83
2022/03/08 09:47:22;;;;;;;72.10;32.95;;;;;;;-1.17;77.68;94992.72;5017974;28;20048;-84
2022/03/08 09:49:49;;;;;;;67.90;32.80;;;;;;;-0.60;74.85;95090.06;5020109;28;20472;-84
2022/03/08 09:52:15;;;;;;;61.60;31.35;;;;;;;-1.10;75.04;95016.13;5018820;28;20037;-84
2022/03/08 09:54:44;;;;;;;70.68;33.58;;;;;;;-0.80;77.77;94991.97;5016973;28;20408;-84
2022/03/08 09:57:10;;;;;;;66.93;32.58;;;;;;;-0.71;75.95;94969.09;5018769;28;20113;-82
2022/03/08 09:59:36;;;;;;;67.18;31.60;;;;;;;-0.76;72.10;94978.56;5019511;28;20034;-82
2022/03/08 10:02:02;;;;;;;62.67;30.52;;;;;;;-1.19;74.39;95005.94;5018072;28;20034;-83
2022/03/08 10:04:28;;;;;;;63.20;32.63;;;;;;;-1.54;74.24;94931.00;5018116;28;20026;-82
2022/03/08 10:06:53;;;;;;;65.18;32.13;;;;;;;-0.79;75.11;95039.66;5018760;28;20041;-82
2022/03/08 10:09:21;;;;;;;62.83;32.28;;;;;;;-0.45;74.82;95069.75;5014921;28;20139;-81
2022/03/08 10:11:55;;;;;;;64.57;29.77;;;;;;;-1.29;75.21;94966.53;5015985;28;20038;-82
2022/03/08 10:14:47;;;;;;;61.15;30.42;;;;;;;-0.65;73.65;95074.25;5014525;28;20037;-82
2022/03/08 10:17:32;;;;;;;62.80;29.83;;;;;;;-1.09;74.62;95072.38;5014458;28;20042;-82
2022/03/08 10:19:58;;;;;;;63.97;29.77;;;;;;;-1.73;75.97;95003.66;5019109;28;20115;-82
2022/03/08 10:22:37;;;;;;;69.22;33.15;;;;;;;-1.13;76.83;95061.56;5013997;28;20042;-82
2022/03/08 10:25:18;;;;;;;68.03;30.15;;;;;;;-0.96;76.06;95083.56;5014663;28;20077;-82
2022/03/08 10:28:01;;;;;;;72.15;31.80;;;;;;;-1.08;76.10;95055.78;5016103;28;20038;-81
2022/03/08 10:30:44;;;;;;;72.95;32.90;;;;;;;-0.63;77.72;95075.66;5016024;28;20563;-81
2022/03/08 10:33:12;;;;;;;58.00;29.55;;;;;;;-1.73;74.53;94933.44;5015948;28;20045;-82
2022/03/08 10:35:40;;;;;;;66.43;31.77;;;;;;;-0.96;76.48;95078.34;5015989;28;20312;-82
2022/03/08 10:38:08;;;;;;;65.18;32.20;;;;;;;-1.50;77.08;94985.00;5015486;28;20037;-82
2022/03/08 10:40:34;;;;;;;74.30;33.40;;;;;;;-1.10;77.25;95034.34;5016835;28;20065;-81
2022/03/08 10:43:13;;;;;;;67.72;32.58;;;;;;;-1.44;76.17;94959.97;5017063;28;20069;-82
2022/03/08 10:45:50;;;;;;;64.03;30.90;;;;;;;-1.10;75.06;94992.72;5016171;28;20045;-82
2022/03/08 10:48:18;;;;;;;67.15;31.92;;;;;;;-0.99;75.78;95000.66;5016879;28;20056;-82
2022/03/08 10:50:46;;;;;;;75.50;29.83;;;;;;;-0.61;75.67;95044.19;5014572;28;20385;-83
2022/03/08 10:53:12;;;;;;;64.80;32.53;;;;;;;-0.22;76.64;95069.22;5015111;28;20038;-82
2022/03/08 10:55:49;;;;;;;66.13;32.88;;;;;;;-0.43;74.85;95065.94;4998456;28;20076;-82
2022/03/08 10:58:17;;;;;;;62.78;30.88;;;;;;;-1.84;76.20;94883.91;5014564;28;20107;-82
2022/03/08 11:00:45;;;;;;;64.25;30.55;;;;;;;-1.64;74.65;94898.44;5018277;28;20140;-82
2022/03/08 11:03:16;;;;;;;66.00;31.55;;;;;;;-1.30;75.51;94962.34;5017487;28;20083;-82
2022/03/08 11:05:50;;;;;;;65.93;31.03;;;;;;;-1.06;74.95;95018.09;5019198;28;20041;-82
2022/03/08 11:08:16;;;;;;;64.38;29.65;;;;;;;-2.21;74.38;94839.38;5015640;28;20348;-83
2022/03/08 11:10:43;;;;;;;63.13;29.60;;;;;;;-1.29;74.48;94969.13;5014632;28;20093;-82
2022/03/08 11:13:10;;;;;;;63.00;31.20;;;;;;;-1.66;74.54;94887.44;5016004;28;20301;-83